sensor_id;sensor_type;location;lat;lon;timestamp;pressure;altitude;pressure_sealevel;temperature;humidity
23619;BME280;18207;32.078;34.818;2023-01-30T00:01:57;100729.66;;;23.03;41.30
23619;BME280;18207;32.078;34.818;2023-01-30T00:04:27;100729.19;;;23.01;41.10
23619;BME280;18207;32.078;34.818;2023-01-30T00:07:00;100716.72;;;22.99;41.05
23619;BME280;18207;32.078;34.818;2023-01-30T00:09:30;100717.41;;;22.96;41.30
23619;BME280;18207;32.078;34.818;2023-01-30T00:12:02;100714.97;;;22.94;41.32
23619;BME280;18207;32.078;34.818;2023-01-30T00:14:32;100714.50;;;22.92;41.51
23619;BME280;18207;32.078;34.818;2023-01-30T00:17:02;100714.84;;;22.91;41.02
23619;BME280;18207;32.078;34.818;2023-01-30T00:19:32;100714.38;;;22.89;41.22
23619;BME280;18207;32.078;34.818;2023-01-30T00:22:05;100710.28;;;22.86;41.41
23619;BME280;18207;32.078;34.818;2023-01-30T00:24:34;100715.06;;;22.86;41.49
23619;BME280;18207;32.078;34.818;2023-01-30T00:27:05;100716.59;;;22.83;41.27
23619;BME280;18207;32.078;34.818;2023-01-30T00:29:35;100718.94;;;22.81;41.32
23619;BME280;18207;32.078;34.818;2023-01-30T00:32:06;100710.88;;;22.80;41.35
23619;BME280;18207;32.078;34.818;2023-01-30T00:34:37;100712.84;;;22.79;41.58
23619;BME280;18207;32.078;34.818;2023-01-30T00:37:09;100716.50;;;22.80;41.78
23619;BME280;18207;32.078;34.818;2023-01-30T00:39:40;100711.22;;;22.78;41.61
23619;BME280;18207;32.078;34.818;2023-01-30T00:42:10;100717.66;;;22.79;41.42
23619;BME280;18207;32.078;34.818;2023-01-30T00:44:56;100713.22;;;22.78;41.54
23619;BME280;18207;32.078;34.818;2023-01-30T00:47:44;100716.03;;;22.78;41.74
23619;BME280;18207;32.078;34.818;2023-01-30T00:50:16;100718.81;;;22.78;41.64
23619;BME280;18207;32.078;34.818;2023-01-30T00:52:48;100728.88;;;22.79;41.74
23619;BME280;18207;32.078;34.818;2023-01-30T00:55:18;100723.25;;;22.79;41.93
23619;BME280;18207;32.078;34.818;2023-01-30T00:57:48;100718.81;;;22.78;41.81
23619;BME280;18207;32.078;34.818;2023-01-30T01:00:18;100717.66;;;22.79;41.67
23619;BME280;18207;32.078;34.818;2023-01-30T01:02:50;100714.38;;;22.77;41.47
23619;BME280;18207;32.078;34.818;2023-01-30T01:05:20;100708.78;;;22.77;41.88
23619;BME280;18207;32.078;34.818;2023-01-30T01:07:54;100726.41;;;22.77;41.75
23619;BME280;18207;32.078;34.818;2023-01-30T01:10:24;100724.75;;;22.76;41.85
23619;BME280;18207;32.078;34.818;2023-01-30T01:12:55;100728.41;;;22.77;41.72
23619;BME280;18207;32.078;34.818;2023-01-30T01:15:25;100721.63;;;22.78;41.72
23619;BME280;18207;32.078;34.818;2023-01-30T01:17:56;100724.44;;;22.78;41.51
23619;BME280;18207;32.078;34.818;2023-01-30T01:20:28;100715.19;;;22.77;42.10
23619;BME280;18207;32.078;34.818;2023-01-30T01:23:00;100708.78;;;22.77;41.61
23619;BME280;18207;32.078;34.818;2023-01-30T01:25:31;100711.59;;;22.77;42.16
23619;BME280;18207;32.078;34.818;2023-01-30T01:28:02;100713.56;;;22.76;42.11
23619;BME280;18207;32.078;34.818;2023-01-30T01:30:33;100715.56;;;22.76;41.55
23619;BME280;18207;32.078;34.818;2023-01-30T01:33:04;100704.69;;;22.74;41.72
23619;BME280;18207;32.078;34.818;2023-01-30T01:35:39;100706.34;;;22.75;41.96
23619;BME280;18207;32.078;34.818;2023-01-30T01:38:12;100700.25;;;22.73;41.74
23619;BME280;18207;32.078;34.818;2023-01-30T01:40:45;100696.63;;;22.73;42.00
23619;BME280;18207;32.078;34.818;2023-01-30T01:43:35;100693.72;;;22.69;41.53
23619;BME280;18207;32.078;34.818;2023-01-30T01:46:17;100699.69;;;22.68;41.75
23619;BME280;18207;32.078;34.818;2023-01-30T01:48:55;100695.25;;;22.67;42.02
23619;BME280;18207;32.078;34.818;2023-01-30T01:51:32;100700.84;;;22.67;42.05
23619;BME280;18207;32.078;34.818;2023-01-30T01:54:09;100687.19;;;22.65;41.82
23619;BME280;18207;32.078;34.818;2023-01-30T01:56:45;100687.19;;;22.65;41.65
23619;BME280;18207;32.078;34.818;2023-01-30T01:59:24;100680.28;;;22.63;42.03
23619;BME280;18207;32.078;34.818;2023-01-30T02:02:01;100686.25;;;22.61;41.78
23619;BME280;18207;32.078;34.818;2023-01-30T02:04:34;100681.81;;;22.60;42.02
23619;BME280;18207;32.078;34.818;2023-01-30T02:07:24;100686.16;;;22.58;41.73
23619;BME280;18207;32.078;34.818;2023-01-30T02:09:57;100687.31;;;22.57;42.00
23619;BME280;18207;32.078;34.818;2023-01-30T02:12:27;100682.50;;;22.57;42.31
23619;BME280;18207;32.078;34.818;2023-01-30T02:14:59;100682.50;;;22.57;41.95
23619;BME280;18207;32.078;34.818;2023-01-30T02:17:30;100694.06;;;22.56;41.81
23619;BME280;18207;32.078;34.818;2023-01-30T02:20:07;100692.44;;;22.55;42.45
23619;BME280;18207;32.078;34.818;2023-01-30T02:23:24;100696.41;;;22.54;42.29
23619;BME280;18207;32.078;34.818;2023-01-30T02:29:48;100694.75;;;22.53;42.10
23619;BME280;18207;32.078;34.818;2023-01-30T02:32:34;100695.59;;;22.53;42.16
23619;BME280;18207;32.078;34.818;2023-01-30T02:35:18;100691.63;;;22.54;41.84
23619;BME280;18207;32.078;34.818;2023-01-30T02:38:07;100690.47;;;22.55;42.26
23619;BME280;18207;32.078;34.818;2023-01-30T02:40:54;100696.06;;;22.55;42.41
23619;BME280;18207;32.078;34.818;2023-01-30T02:43:37;100691.28;;;22.56;42.35
23619;BME280;18207;32.078;34.818;2023-01-30T02:46:16;100688.94;;;22.58;42.64
23619;BME280;18207;32.078;34.818;2023-01-30T02:48:55;100700.97;;;22.58;42.18
23619;BME280;18207;32.078;34.818;2023-01-30T02:51:30;100705.75;;;22.58;42.09
23619;BME280;18207;32.078;34.818;2023-01-30T02:54:05;100697.34;;;22.58;42.56
23619;BME280;18207;32.078;34.818;2023-01-30T02:56:48;100700.50;;;22.56;42.10
23619;BME280;18207;32.078;34.818;2023-01-30T02:59:23;100695.25;;;22.55;42.33
23619;BME280;18207;32.078;34.818;2023-01-30T03:05:38;100701.91;;;22.50;42.10
23619;BME280;18207;32.078;34.818;2023-01-30T03:08:27;100699.94;;;22.51;42.58
23619;BME280;18207;32.078;34.818;2023-01-30T03:11:03;100708.66;;;22.49;42.53
23619;BME280;18207;32.078;34.818;2023-01-30T03:13:52;100715.91;;;22.50;42.34
23619;BME280;18207;32.078;34.818;2023-01-30T03:16:31;100713.47;;;22.49;42.90
23619;BME280;18207;32.078;34.818;2023-01-30T03:19:04;100714.63;;;22.48;42.45
23619;BME280;18207;32.078;34.818;2023-01-30T03:21:40;100715.78;;;22.47;42.33
23619;BME280;18207;32.078;34.818;2023-01-30T03:24:12;100705.75;;;22.46;42.77
23619;BME280;18207;32.078;34.818;2023-01-30T03:26:49;100714.97;;;22.46;42.54
23619;BME280;18207;32.078;34.818;2023-01-30T03:29:23;100721.75;;;22.45;42.97
23619;BME280;18207;32.078;34.818;2023-01-30T03:31:54;100712.50;;;22.45;42.53
23619;BME280;18207;32.078;34.818;2023-01-30T03:34:25;100712.50;;;22.45;42.61
23619;BME280;18207;32.078;34.818;2023-01-30T03:36:57;100713.34;;;22.45;42.40
23619;BME280;18207;32.078;34.818;2023-01-30T03:39:28;100733.75;;;22.46;42.68
23619;BME280;18207;32.078;34.818;2023-01-30T03:41:58;100738.53;;;22.45;42.55
23619;BME280;18207;32.078;34.818;2023-01-30T03:44:28;100734.91;;;22.45;42.72
23619;BME280;18207;32.078;34.818;2023-01-30T03:46:59;100718.78;;;22.42;42.52
23619;BME280;18207;32.078;34.818;2023-01-30T03:49:29;100713.91;;;22.39;43.13
23619;BME280;18207;32.078;34.818;2023-01-30T03:52:01;100721.84;;;22.37;42.90
23619;BME280;18207;32.078;34.818;2023-01-30T03:54:31;100715.75;;;22.35;42.96
23619;BME280;18207;32.078;34.818;2023-01-30T03:57:05;100718.94;;;22.34;42.82
23619;BME280;18207;32.078;34.818;2023-01-30T03:59:35;100738.84;;;22.32;43.07
23619;BME280;18207;32.078;34.818;2023-01-30T04:02:05;100739.53;;;22.29;43.19
23619;BME280;18207;32.078;34.818;2023-01-30T04:04:37;100733.09;;;22.29;42.93
23619;BME280;18207;32.078;34.818;2023-01-30T04:07:09;100732.66;;;22.27;42.85
23619;BME280;18207;32.078;34.818;2023-01-30T04:09:40;100731.03;;;22.26;42.97
23619;BME280;18207;32.078;34.818;2023-01-30T04:12:10;100736.25;;;22.27;43.04
23619;BME280;18207;32.078;34.818;2023-01-30T04:14:40;100727.06;;;22.27;42.81
23619;BME280;18207;32.078;34.818;2023-01-30T04:17:10;100734.97;;;22.25;42.87
23619;BME280;18207;32.078;34.818;2023-01-30T04:19:41;100729.38;;;22.25;43.24
23619;BME280;18207;32.078;34.818;2023-01-30T04:22:13;100732.19;;;22.25;43.04
23619;BME280;18207;32.078;34.818;2023-01-30T04:24:44;100733.34;;;22.24;42.63
23619;BME280;18207;32.078;34.818;2023-01-30T04:27:14;100734.97;;;22.25;43.25
23619;BME280;18207;32.078;34.818;2023-01-30T04:29:46;100734.16;;;22.24;42.79
23619;BME280;18207;32.078;34.818;2023-01-30T04:32:16;100747.81;;;22.26;42.88
23619;BME280;18207;32.078;34.818;2023-01-30T04:34:47;100736.25;;;22.27;43.16
23619;BME280;18207;32.078;34.818;2023-01-30T04:37:20;100735.91;;;22.29;42.74
23619;BME280;18207;32.078;34.818;2023-01-30T04:39:50;100729.50;;;22.28;43.29
23619;BME280;18207;32.078;34.818;2023-01-30T04:42:20;100727.50;;;22.29;43.25
23619;BME280;18207;32.078;34.818;2023-01-30T04:44:50;100726.69;;;22.28;43.29
23619;BME280;18207;32.078;34.818;2023-01-30T04:47:21;100738.25;;;22.27;43.15
23619;BME280;18207;32.078;34.818;2023-01-30T04:49:51;100733.47;;;22.27;43.32
23619;BME280;18207;32.078;34.818;2023-01-30T04:52:23;100732.19;;;22.25;42.81
23619;BME280;18207;32.078;34.818;2023-01-30T04:54:54;100738.94;;;22.24;43.34
23619;BME280;18207;32.078;34.818;2023-01-30T04:57:25;100742.09;;;22.22;43.43
23619;BME280;18207;32.078;34.818;2023-01-30T04:59:56;100738.34;;;22.18;43.42
23619;BME280;18207;32.078;34.818;2023-01-30T05:02:26;100741.81;;;22.15;42.99
23619;BME280;18207;32.078;34.818;2023-01-30T05:04:56;100745.78;;;22.14;43.24
23619;BME280;18207;32.078;34.818;2023-01-30T05:07:29;100757.81;;;22.15;42.98
23619;BME280;18207;32.078;34.818;2023-01-30T05:10:00;100759.78;;;22.14;42.93
23619;BME280;18207;32.078;34.818;2023-01-30T05:12:31;100760.94;;;22.13;43.32
23619;BME280;18207;32.078;34.818;2023-01-30T05:15:02;100768.19;;;22.14;43.49
23619;BME280;18207;32.078;34.818;2023-01-30T05:17:34;100754.66;;;22.16;43.64
23619;BME280;18207;32.078;34.818;2023-01-30T05:20:07;100747.69;;;22.22;43.26
23619;BME280;18207;32.078;34.818;2023-01-30T05:22:40;100761.25;;;22.32;43.74
23619;BME280;18207;32.078;34.818;2023-01-30T05:25:11;100757.69;;;22.43;43.90
23619;BME280;18207;32.078;34.818;2023-01-30T05:27:42;100769.22;;;22.54;43.64
23619;BME280;18207;32.078;34.818;2023-01-30T05:30:13;100752.69;;;22.61;44.03
23619;BME280;18207;32.078;34.818;2023-01-30T05:32:44;100765.88;;;22.72;44.05
23619;BME280;18207;32.078;34.818;2023-01-30T05:35:15;100778.72;;;22.85;44.25
23619;BME280;18207;32.078;34.818;2023-01-30T05:37:52;100778.47;;;23.02;43.89
23619;BME280;18207;32.078;34.818;2023-01-30T05:40:22;100775.81;;;23.18;44.40
23619;BME280;18207;32.078;34.818;2023-01-30T05:42:55;100766.31;;;23.34;44.12
23619;BME280;18207;32.078;34.818;2023-01-30T05:45:26;100763.25;;;23.51;44.33
23619;BME280;18207;32.078;34.818;2023-01-30T05:47:57;100773.38;;;23.67;44.29
23619;BME280;18207;32.078;34.818;2023-01-30T05:50:29;100778.69;;;23.84;44.44
23619;BME280;18207;32.078;34.818;2023-01-30T05:53:02;100774.31;;;23.99;44.33
23619;BME280;18207;32.078;34.818;2023-01-30T05:55:32;100777.16;;;24.14;44.38
23619;BME280;18207;32.078;34.818;2023-01-30T05:58:02;100779.16;;;24.29;44.56
23619;BME280;18207;32.078;34.818;2023-01-30T06:00:33;100788.50;;;24.45;44.57
23619;BME280;18207;32.078;34.818;2023-01-30T06:03:02;100789.69;;;24.59;44.41
23619;BME280;18207;32.078;34.818;2023-01-30T06:05:32;100786.88;;;24.75;44.72
23619;BME280;18207;32.078;34.818;2023-01-30T06:08:07;100791.41;;;24.95;44.66
23619;BME280;18207;32.078;34.818;2023-01-30T06:10:38;100789.50;;;25.14;44.51
23619;BME280;18207;32.078;34.818;2023-01-30T06:13:09;100780.38;;;25.36;44.54
23619;BME280;18207;32.078;34.818;2023-01-30T06:15:40;100784.13;;;25.59;44.41
23619;BME280;18207;32.078;34.818;2023-01-30T06:18:10;100789.94;;;25.85;44.22
23619;BME280;18207;32.078;34.818;2023-01-30T06:20:40;100798.19;;;26.12;44.18
23619;BME280;18207;32.078;34.818;2023-01-30T06:23:18;100800.66;;;26.36;44.07
23619;BME280;18207;32.078;34.818;2023-01-30T06:25:51;100784.06;;;26.50;43.85
23619;BME280;18207;32.078;34.818;2023-01-30T06:28:24;100795.22;;;26.65;44.01
23619;BME280;18207;32.078;34.818;2023-01-30T06:30:54;100791.38;;;26.77;43.55
23619;BME280;18207;32.078;34.818;2023-01-30T06:33:25;100801.28;;;26.89;43.84
23619;BME280;18207;32.078;34.818;2023-01-30T06:35:56;100798.38;;;27.05;43.61
23619;BME280;18207;32.078;34.818;2023-01-30T06:38:29;100785.34;;;27.23;43.65
23619;BME280;18207;32.078;34.818;2023-01-30T06:40:59;100784.34;;;27.38;43.44
23619;BME280;18207;32.078;34.818;2023-01-30T06:43:31;100788.63;;;27.54;43.30
23619;BME280;18207;32.078;34.818;2023-01-30T06:46:01;100800.16;;;27.68;43.08
23619;BME280;18207;32.078;34.818;2023-01-30T06:48:32;100796.28;;;27.79;43.10
23619;BME280;18207;32.078;34.818;2023-01-30T06:51:02;100797.25;;;27.90;42.95
23619;BME280;18207;32.078;34.818;2023-01-30T06:53:35;100800.53;;;27.96;42.86
23619;BME280;18207;32.078;34.818;2023-01-30T06:56:06;100795.38;;;28.01;42.68
23619;BME280;18207;32.078;34.818;2023-01-30T06:58:37;100797.47;;;28.08;43.08
23619;BME280;18207;32.078;34.818;2023-01-30T07:01:07;100786.16;;;28.08;42.71
23619;BME280;18207;32.078;34.818;2023-01-30T07:03:37;100793.84;;;28.11;42.33
23619;BME280;18207;32.078;34.818;2023-01-30T07:06:08;100797.50;;;28.11;42.24
23619;BME280;18207;32.078;34.818;2023-01-30T07:08:40;100798.75;;;28.14;42.25
23619;BME280;18207;32.078;34.818;2023-01-30T07:11:11;100790.72;;;28.19;42.17
23619;BME280;18207;32.078;34.818;2023-01-30T07:13:42;100788.00;;;28.26;42.29
23619;BME280;18207;32.078;34.818;2023-01-30T07:16:12;100791.75;;;28.34;41.92
23619;BME280;18207;32.078;34.818;2023-01-30T07:18:43;100784.97;;;28.42;41.64
23619;BME280;18207;32.078;34.818;2023-01-30T07:21:14;100780.16;;;28.46;41.86
23619;BME280;18207;32.078;34.818;2023-01-30T07:23:47;100779.78;;;28.51;41.81
23619;BME280;18207;32.078;34.818;2023-01-30T07:26:18;100788.38;;;28.58;42.09
23619;BME280;18207;32.078;34.818;2023-01-30T07:28:49;100775.50;;;28.63;41.81
23619;BME280;18207;32.078;34.818;2023-01-30T07:31:20;100763.47;;;28.73;41.55
23619;BME280;18207;32.078;34.818;2023-01-30T07:33:51;100756.31;;;28.83;41.74
23619;BME280;18207;32.078;34.818;2023-01-30T07:36:21;100764.03;;;28.89;41.56
23619;BME280;18207;32.078;34.818;2023-01-30T07:38:54;100756.41;;;28.97;41.28
23619;BME280;18207;32.078;34.818;2023-01-30T07:41:24;100756.47;;;29.04;41.46
23619;BME280;18207;32.078;34.818;2023-01-30T07:43:54;100758.16;;;29.12;40.85
23619;BME280;18207;32.078;34.818;2023-01-30T07:46:25;100762.25;;;29.18;40.89
23619;BME280;18207;32.078;34.818;2023-01-30T07:49:03;100765.50;;;29.23;41.08
23619;BME280;18207;32.078;34.818;2023-01-30T07:51:34;100754.63;;;29.29;40.99
23619;BME280;18207;32.078;34.818;2023-01-30T07:54:07;100760.75;;;29.34;40.88
23619;BME280;18207;32.078;34.818;2023-01-30T07:56:37;100761.59;;;29.38;40.56
23619;BME280;18207;32.078;34.818;2023-01-30T07:59:09;100766.06;;;29.43;40.20
23619;BME280;18207;32.078;34.818;2023-01-30T08:01:40;100771.34;;;29.44;40.25
23619;BME280;18207;32.078;34.818;2023-01-30T08:04:11;100770.13;;;29.42;40.07
23619;BME280;18207;32.078;34.818;2023-01-30T08:06:41;100770.03;;;29.35;39.70
23619;BME280;18207;32.078;34.818;2023-01-30T08:09:13;100773.59;;;29.25;39.28
23619;BME280;18207;32.078;34.818;2023-01-30T08:11:44;100767.03;;;29.14;39.04
23619;BME280;18207;32.078;34.818;2023-01-30T08:14:15;100773.03;;;29.02;39.17
23619;BME280;18207;32.078;34.818;2023-01-30T08:16:46;100768.47;;;28.87;38.55
23619;BME280;18207;32.078;34.818;2023-01-30T08:19:19;100765.06;;;28.71;38.69
23619;BME280;18207;32.078;34.818;2023-01-30T08:21:51;100754.81;;;28.56;38.62
23619;BME280;18207;32.078;34.818;2023-01-30T08:24:24;100768.84;;;28.46;38.46
23619;BME280;18207;32.078;34.818;2023-01-30T08:26:54;100755.78;;;28.34;38.40
23619;BME280;18207;32.078;34.818;2023-01-30T08:29:25;100759.72;;;28.23;38.26
23619;BME280;18207;32.078;34.818;2023-01-30T08:31:57;100753.91;;;28.12;38.20
23619;BME280;18207;32.078;34.818;2023-01-30T08:34:28;100755.41;;;28.03;38.20
23619;BME280;18207;32.078;34.818;2023-01-30T08:36:59;100754.50;;;27.95;38.19
23619;BME280;18207;32.078;34.818;2023-01-30T08:39:31;100758.84;;;27.86;38.03
23619;BME280;18207;32.078;34.818;2023-01-30T08:42:04;100746.63;;;27.78;38.09
23619;BME280;18207;32.078;34.818;2023-01-30T08:44:34;100756.66;;;27.73;38.43
23619;BME280;18207;32.078;34.818;2023-01-30T08:47:04;100736.00;;;27.69;38.35
23619;BME280;18207;32.078;34.818;2023-01-30T08:49:34;100736.81;;;27.66;38.72
23619;BME280;18207;32.078;34.818;2023-01-30T08:52:05;100729.53;;;27.65;38.54
23619;BME280;18207;32.078;34.818;2023-01-30T08:54:37;100722.97;;;27.61;38.28
23619;BME280;18207;32.078;34.818;2023-01-30T08:57:07;100727.75;;;27.57;38.12
23619;BME280;18207;32.078;34.818;2023-01-30T08:59:38;100721.25;;;27.53;38.33
23619;BME280;18207;32.078;34.818;2023-01-30T09:02:10;100730.09;;;27.51;38.31
23619;BME280;18207;32.078;34.818;2023-01-30T09:04:41;100719.19;;;27.50;38.16
23619;BME280;18207;32.078;34.818;2023-01-30T09:07:11;100705.06;;;27.50;38.34
23619;BME280;18207;32.078;34.818;2023-01-30T09:09:44;100697.44;;;27.50;38.18
23619;BME280;18207;32.078;34.818;2023-01-30T09:12:27;100709.91;;;27.49;38.24
23619;BME280;18207;32.078;34.818;2023-01-30T09:14:57;100705.06;;;27.50;38.33
23619;BME280;18207;32.078;34.818;2023-01-30T09:17:28;100713.09;;;27.48;38.10
23619;BME280;18207;32.078;34.818;2023-01-30T09:19:58;100708.25;;;27.45;38.31
23619;BME280;18207;32.078;34.818;2023-01-30T09:22:29;100701.69;;;27.37;38.16
23619;BME280;18207;32.078;34.818;2023-01-30T09:25:02;100697.59;;;27.31;37.88
23619;BME280;18207;32.078;34.818;2023-01-30T09:27:32;100704.75;;;27.25;38.02
23619;BME280;18207;32.078;34.818;2023-01-30T09:30:05;100703.06;;;27.21;37.89
23619;BME280;18207;32.078;34.818;2023-01-30T09:32:36;100698.56;;;27.16;37.90
23619;BME280;18207;32.078;34.818;2023-01-30T09:35:08;100688.47;;;27.15;38.03
23619;BME280;18207;32.078;34.818;2023-01-30T09:37:46;100688.47;;;27.15;38.17
23619;BME280;18207;32.078;34.818;2023-01-30T09:40:23;100687.28;;;27.16;38.22
23619;BME280;18207;32.078;34.818;2023-01-30T09:43:21;100685.25;;;27.17;38.16
23619;BME280;18207;32.078;34.818;2023-01-30T09:46:17;100677.19;;;27.15;38.12
23619;BME280;18207;32.078;34.818;2023-01-30T09:48:58;100680.00;;;27.15;38.09
23619;BME280;18207;32.078;34.818;2023-01-30T09:51:43;100680.00;;;27.15;38.05
23619;BME280;18207;32.078;34.818;2023-01-30T09:54:25;100675.56;;;27.14;37.91
23619;BME280;18207;32.078;34.818;2023-01-30T09:57:11;100672.28;;;27.12;37.82
23619;BME280;18207;32.078;34.818;2023-01-30T10:00:05;100670.69;;;27.11;37.87
23619;BME280;18207;32.078;34.818;2023-01-30T10:02:50;100670.63;;;27.08;38.04
23619;BME280;18207;32.078;34.818;2023-01-30T10:05:33;100664.97;;;27.08;37.87
23619;BME280;18207;32.078;34.818;2023-01-30T10:08:27;100658.94;;;27.06;37.83
23619;BME280;18207;32.078;34.818;2023-01-30T10:11:11;100679.44;;;27.03;37.79
23619;BME280;18207;32.078;34.818;2023-01-30T10:14:10;100666.88;;;27.00;37.75
23619;BME280;18207;32.078;34.818;2023-01-30T10:17:10;100664.00;;;26.97;37.87
23619;BME280;18207;32.078;34.818;2023-01-30T10:20:06;100659.47;;;26.92;37.76
23619;BME280;18207;32.078;34.818;2023-01-30T10:22:57;100638.84;;;26.85;37.83
23619;BME280;18207;32.078;34.818;2023-01-30T10:25:35;100648.44;;;26.81;37.74
23619;BME280;18207;32.078;34.818;2023-01-30T10:28:19;100641.91;;;26.77;37.70
23619;BME280;18207;32.078;34.818;2023-01-30T10:31:00;100636.66;;;26.75;37.72
23619;BME280;18207;32.078;34.818;2023-01-30T10:33:37;100612.47;;;26.74;37.84
23619;BME280;18207;32.078;34.818;2023-01-30T10:36:24;100613.66;;;26.73;37.96
23619;BME280;18207;32.078;34.818;2023-01-30T10:39:02;100618.06;;;26.71;37.66
23619;BME280;18207;32.078;34.818;2023-01-30T10:41:39;100612.78;;;26.69;37.84
23619;BME280;18207;32.078;34.818;2023-01-30T10:44:15;100608.75;;;26.67;37.81
23619;BME280;18207;32.078;34.818;2023-01-30T10:47:19;100607.06;;;26.62;37.79
23619;BME280;18207;32.078;34.818;2023-01-30T10:50:15;100598.56;;;26.59;37.68
23619;BME280;18207;32.078;34.818;2023-01-30T10:52:56;100602.56;;;26.58;37.90
23619;BME280;18207;32.078;34.818;2023-01-30T10:55:34;100595.69;;;26.55;37.82
23619;BME280;18207;32.078;34.818;2023-01-30T10:58:18;100601.28;;;26.52;37.55
23619;BME280;18207;32.078;34.818;2023-01-30T11:01:13;100591.94;;;26.48;37.45
23619;BME280;18207;32.078;34.818;2023-01-30T11:03:52;100587.44;;;26.43;37.63
23619;BME280;18207;32.078;34.818;2023-01-30T11:06:26;100580.88;;;26.39;37.68
23619;BME280;18207;32.078;34.818;2023-01-30T11:08:57;100584.09;;;26.38;37.56
23619;BME280;18207;32.078;34.818;2023-01-30T11:11:32;100582.84;;;26.35;37.51
23619;BME280;18207;32.078;34.818;2023-01-30T11:14:07;100579.59;;;26.33;37.54
23619;BME280;18207;32.078;34.818;2023-01-30T11:16:44;100579.16;;;26.31;37.49
23619;BME280;18207;32.078;34.818;2023-01-30T11:19:21;100570.25;;;26.29;37.48
23619;BME280;18207;32.078;34.818;2023-01-30T11:21:55;100569.41;;;26.25;37.56
23619;BME280;18207;32.078;34.818;2023-01-30T11:24:31;100575.78;;;26.22;37.52
23619;BME280;18207;32.078;34.818;2023-01-30T11:27:16;100576.19;;;26.21;37.53
23619;BME280;18207;32.078;34.818;2023-01-30T11:29:48;100582.16;;;26.19;37.54
23619;BME280;18207;32.078;34.818;2023-01-30T11:32:26;100569.31;;;26.18;37.35
23619;BME280;18207;32.078;34.818;2023-01-30T11:35:26;100570.41;;;26.14;37.46
23619;BME280;18207;32.078;34.818;2023-01-30T11:38:19;100573.16;;;26.10;37.51
23619;BME280;18207;32.078;34.818;2023-01-30T11:41:03;100571.94;;;26.08;37.45
23619;BME280;18207;32.078;34.818;2023-01-30T11:43:37;100575.94;;;26.07;37.36
23619;BME280;18207;32.078;34.818;2023-01-30T11:46:13;100573.50;;;26.05;37.39
23619;BME280;18207;32.078;34.818;2023-01-30T11:48:52;100566.25;;;26.04;37.40
23619;BME280;18207;32.078;34.818;2023-01-30T11:51:51;100563.81;;;26.03;37.27
23619;BME280;18207;32.078;34.818;2023-01-30T11:54:31;100556.53;;;26.02;37.31
23619;BME280;18207;32.078;34.818;2023-01-30T11:57:10;100561.75;;;26.00;37.22
23619;BME280;18207;32.078;34.818;2023-01-30T11:59:45;100563.66;;;25.96;37.29
23619;BME280;18207;32.078;34.818;2023-01-30T12:02:22;100555.16;;;25.93;37.30
23619;BME280;18207;32.078;34.818;2023-01-30T12:04:58;100555.91;;;25.90;37.22
23619;BME280;18207;32.078;34.818;2023-01-30T12:07:34;100554.72;;;25.91;37.34
23619;BME280;18207;32.078;34.818;2023-01-30T12:10:28;100555.91;;;25.90;37.58
23619;BME280;18207;32.078;34.818;2023-01-30T12:13:08;100550.66;;;25.88;37.35
23619;BME280;18207;32.078;34.818;2023-01-30T12:15:45;100551.84;;;25.87;37.36
23619;BME280;18207;32.078;34.818;2023-01-30T12:18:24;100550.59;;;25.85;36.95
23619;BME280;18207;32.078;34.818;2023-01-30T12:21:00;100550.16;;;25.83;37.25
23619;BME280;18207;32.078;34.818;2023-01-30T12:23:42;100556.97;;;25.82;37.31
23619;BME280;18207;32.078;34.818;2023-01-30T12:26:19;100549.72;;;25.81;37.36
23619;BME280;18207;32.078;34.818;2023-01-30T12:28:57;100540.47;;;25.80;37.37
23619;BME280;18207;32.078;34.818;2023-01-30T12:31:36;100544.47;;;25.79;37.29
23619;BME280;18207;32.078;34.818;2023-01-30T12:34:09;100538.84;;;25.79;37.23
23619;BME280;18207;32.078;34.818;2023-01-30T12:36:51;100539.22;;;25.78;37.29
23619;BME280;18207;32.078;34.818;2023-01-30T12:39:45;100553.22;;;25.74;37.29
23619;BME280;18207;32.078;34.818;2023-01-30T12:42:56;100553.94;;;25.71;37.40
23619;BME280;18207;32.078;34.818;2023-01-30T12:45:38;100559.97;;;25.70;37.39
23619;BME280;18207;32.078;34.818;2023-01-30T12:48:35;100559.13;;;25.69;37.38
23619;BME280;18207;32.078;34.818;2023-01-30T12:51:47;100559.53;;;25.68;37.34
23619;BME280;18207;32.078;34.818;2023-01-30T12:54:41;100557.06;;;25.66;37.57
23619;BME280;18207;32.078;34.818;2023-01-30T12:57:26;100576.34;;;25.64;37.48
23619;BME280;18207;32.078;34.818;2023-01-30T13:00:27;100574.28;;;25.61;37.46
23619;BME280;18207;32.078;34.818;2023-01-30T13:03:28;100568.19;;;25.59;37.47
23619;BME280;18207;32.078;34.818;2023-01-30T13:06:13;100572.19;;;25.58;37.62
23619;BME280;18207;32.078;34.818;2023-01-30T13:09:16;100562.13;;;25.57;37.47
23619;BME280;18207;32.078;34.818;2023-01-30T13:12:02;100569.78;;;25.57;37.37
23619;BME280;18207;32.078;34.818;2023-01-30T13:14:43;100560.50;;;25.56;37.50
23619;BME280;18207;32.078;34.818;2023-01-30T13:17:43;100570.50;;;25.54;37.44
23619;BME280;18207;32.078;34.818;2023-01-30T13:20:37;100573.31;;;25.54;37.77
23619;BME280;18207;32.078;34.818;2023-01-30T13:23:19;100569.72;;;25.53;37.41
23619;BME280;18207;32.078;34.818;2023-01-30T13:26:00;100569.72;;;25.53;37.64
23619;BME280;18207;32.078;34.818;2023-01-30T13:28:39;100570.06;;;25.52;37.56
23619;BME280;18207;32.078;34.818;2023-01-30T13:31:16;100568.00;;;25.49;37.23
23619;BME280;18207;32.078;34.818;2023-01-30T13:33:55;100568.38;;;25.47;37.37